KPSO

Stevens Field Airport

Pagosa Springs, Colorado, USA
METAR KPSO 181255Z AUTO 00000KT 10SM CLR M03/M08 A3009 RMK AO2 T10321076
Observed Flight Rules
Dec-18 @ 12:55 UTC (17 minutes ago) Visual Flight Rules
Visibility Clouds
10 miles
  • Clear skies
Temperatures Readings
Current -3°C / 27°F
Dewpoint -8°C / 18°F
Humidity 69%
Altimeter 30.09" Hg
Pressure 1019 hPa
Elevation 2334
METAR KPSO 181255Z AUTO 00000KT 10SM CLR M03/M08 A3009 RMK AO2 T10321076
Observed Flight Rules
Dec-18 @ 12:55 UTC
(17 minutes ago)
VFR
Clouds
  • Clear skies
Temperature Dewpoint
-3°C / 27°F -8°C / 18°F
Humidity Altimeter Pressure
69% 30.09" Hg 1019 hPa